createdAt,value
2023-01-23T00:00:15.937Z,0.80
2023-01-23T00:05:38.334Z,0.80
2023-01-23T00:10:41.062Z,0.80
2023-01-23T00:15:43.666Z,0.80
2023-01-23T00:20:46.215Z,0.80
2023-01-23T00:25:48.704Z,0.80
2023-01-23T00:30:51.357Z,0.80
2023-01-23T00:35:55.090Z,1.10
2023-01-23T00:40:57.672Z,0.90
2023-01-23T00:46:01.484Z,0.80
2023-01-23T00:51:04.866Z,0.90
2023-01-23T00:56:07.758Z,0.90
2023-01-23T01:01:10.684Z,0.90
2023-01-23T01:06:15.075Z,0.90
2023-01-23T01:11:18.177Z,0.80
2023-01-23T01:16:20.904Z,0.80
2023-01-23T01:21:23.693Z,0.90
2023-01-23T01:26:26.323Z,0.80
2023-01-23T01:31:31.823Z,0.90
2023-01-23T01:36:34.499Z,0.80
2023-01-23T01:41:37.249Z,0.80
2023-01-23T01:46:39.861Z,0.80
2023-01-23T01:52:10.553Z,0.80
2023-01-23T01:57:22.216Z,0.80
2023-01-23T02:02:46.397Z,0.80
2023-01-23T02:08:11.008Z,0.80
2023-01-23T02:13:38.776Z,0.70
2023-01-23T02:18:47.387Z,0.80
2023-01-23T02:24:15.176Z,0.80
2023-01-23T02:29:19.396Z,0.80
2023-01-23T02:34:27.582Z,0.80
2023-01-23T02:39:35.025Z,0.70
2023-01-23T02:44:37.830Z,0.80
2023-01-23T02:49:40.788Z,0.90
2023-01-23T02:54:44.669Z,0.90
2023-01-23T03:00:07.001Z,0.90
2023-01-23T03:05:11.334Z,0.90
2023-01-23T03:10:13.848Z,0.90
2023-01-23T03:15:19.214Z,0.90
2023-01-23T03:20:23.778Z,0.90
2023-01-23T03:25:26.470Z,0.80
2023-01-23T03:30:29.263Z,0.90
2023-01-23T03:35:32.833Z,0.90
2023-01-23T03:40:54.164Z,0.80
2023-01-23T03:45:57.731Z,0.80
2023-01-23T03:51:01.273Z,0.90
2023-01-23T03:56:07.183Z,0.90
2023-01-23T04:01:10.199Z,0.90
2023-01-23T04:06:15.464Z,0.90
2023-01-23T04:11:20.005Z,0.80
2023-01-23T04:16:23.264Z,0.90
2023-01-23T04:21:25.845Z,1.00
2023-01-23T04:26:28.448Z,0.90
2023-01-23T04:31:32.015Z,0.80
2023-01-23T04:36:35.315Z,0.90
2023-01-23T04:41:38.076Z,0.90
2023-01-23T04:46:55.288Z,1.00
2023-01-23T04:51:58.166Z,0.90
2023-01-23T04:57:01.471Z,0.90
2023-01-23T05:02:05.489Z,0.90
2023-01-23T05:07:14.717Z,0.90
2023-01-23T05:12:25.202Z,0.90
2023-01-23T05:17:27.911Z,1.00
2023-01-23T05:22:30.950Z,0.90
2023-01-23T05:27:34.355Z,0.90
2023-01-23T05:32:37.146Z,0.90
2023-01-23T05:37:53.605Z,0.90
2023-01-23T05:42:59.349Z,1.00
2023-01-23T05:48:22.126Z,1.00
2023-01-23T05:53:24.720Z,1.00
2023-01-23T05:58:27.896Z,1.00
2023-01-23T06:03:53.467Z,1.00
2023-01-23T06:09:12.206Z,1.00
2023-01-23T06:14:14.890Z,1.00
2023-01-23T06:19:17.580Z,1.00
2023-01-23T06:24:20.224Z,1.00
2023-01-23T06:29:23.961Z,1.00
2023-01-23T06:34:28.308Z,1.10
2023-01-23T06:39:34.625Z,1.00
2023-01-23T06:44:39.190Z,0.90
2023-01-23T06:49:43.389Z,1.00
2023-01-23T06:54:46.571Z,0.90
2023-01-23T06:59:49.501Z,1.00
2023-01-23T07:04:54.641Z,1.00
2023-01-23T07:09:57.245Z,1.00
2023-01-23T07:15:01.446Z,1.00
2023-01-23T07:20:11.682Z,1.30
2023-01-23T07:25:22.624Z,1.00
2023-01-23T07:30:26.358Z,1.00
2023-01-23T07:35:29.001Z,1.10
2023-01-23T07:40:31.571Z,1.00
2023-01-23T07:45:52.769Z,1.10
2023-01-23T07:50:55.672Z,1.30
2023-01-23T07:55:58.318Z,1.30
2023-01-23T08:01:08.095Z,1.40
2023-01-23T08:06:10.785Z,1.40
2023-01-23T08:11:13.648Z,1.50
2023-01-23T08:16:16.398Z,1.50
2023-01-23T08:21:19.003Z,1.50
2023-01-23T08:26:21.556Z,1.50
2023-01-23T08:31:24.341Z,1.60
2023-01-23T08:36:29.679Z,1.60
2023-01-23T08:41:32.825Z,1.40
2023-01-23T08:46:35.401Z,1.50
2023-01-23T08:51:38.225Z,1.50
2023-01-23T08:56:41.339Z,1.70
2023-01-23T09:01:44.035Z,1.60
2023-01-23T09:06:46.677Z,1.60
2023-01-23T09:11:49.306Z,1.60
2023-01-23T09:16:51.963Z,1.60
2023-01-23T09:21:55.114Z,1.60
2023-01-23T09:26:58.113Z,1.70
2023-01-23T09:32:00.736Z,1.70
2023-01-23T09:37:04.022Z,1.70
2023-01-23T09:42:11.083Z,1.80
2023-01-23T09:47:20.773Z,1.80
2023-01-23T09:52:36.312Z,1.70
2023-01-23T09:57:58.081Z,1.80
2023-01-23T10:03:03.376Z,2.00
2023-01-23T10:08:26.888Z,1.90
2023-01-23T10:13:39.155Z,1.90
2023-01-23T10:18:54.538Z,1.90
2023-01-23T10:24:17.869Z,2.90
2023-01-23T10:29:43.681Z,2.00
2023-01-23T10:35:12.347Z,2.10
2023-01-23T10:40:39.624Z,2.00
2023-01-23T10:45:43.392Z,2.10
2023-01-23T10:50:46.061Z,2.10
2023-01-23T10:55:50.902Z,2.30
2023-01-23T11:00:53.703Z,2.30
2023-01-23T11:06:16.675Z,2.20
2023-01-23T11:11:23.089Z,2.10
2023-01-23T11:16:25.895Z,2.20
2023-01-23T11:21:32.665Z,2.10
2023-01-23T11:26:38.332Z,2.30
2023-01-23T11:31:42.171Z,2.30
2023-01-23T11:36:53.701Z,2.30
2023-01-23T11:41:57.373Z,2.20
2023-01-23T11:47:19.083Z,2.20
2023-01-23T11:52:43.043Z,2.20
2023-01-23T11:57:56.879Z,2.30
2023-01-23T12:03:05.258Z,2.50
2023-01-23T12:08:26.747Z,2.40
2023-01-23T12:13:35.190Z,2.40
2023-01-23T12:18:52.591Z,2.30
2023-01-23T12:24:13.156Z,2.30
2023-01-23T12:29:37.346Z,2.40
2023-01-23T12:35:17.368Z,2.40
2023-01-23T12:40:31.097Z,2.40
2023-01-23T12:45:33.920Z,2.40
2023-01-23T12:50:39.957Z,2.30
2023-01-23T12:55:55.636Z,2.20
2023-01-23T13:01:05.321Z,2.10
2023-01-23T13:06:25.873Z,2.00
2023-01-23T13:11:46.806Z,2.10
2023-01-23T13:16:51.560Z,2.10
2023-01-23T13:22:28.636Z,2.10
2023-01-23T13:27:52.933Z,2.00
2023-01-23T13:33:13.704Z,1.90
2023-01-23T13:38:21.915Z,1.70
2023-01-23T13:43:54.836Z,1.70
2023-01-23T14:21:52.308Z,1.50
2023-01-23T14:27:08.405Z,1.50
2023-01-23T14:32:24.168Z,1.50
2023-01-23T14:37:28.532Z,1.50
2023-01-23T14:42:33.788Z,-1.30
2023-01-23T14:47:45.432Z,1.50
2023-01-23T14:53:01.276Z,1.50
2023-01-23T14:58:04.920Z,1.40
2023-01-23T15:03:11.489Z,1.40
2023-01-23T15:08:27.015Z,1.40
2023-01-23T15:13:41.495Z,1.30
2023-01-23T15:19:12.608Z,1.20
2023-01-23T15:24:15.425Z,1.30
2023-01-23T15:29:20.476Z,1.30
2023-01-23T15:34:26.841Z,1.30
2023-01-23T15:39:39.958Z,1.30
2023-01-23T15:44:43.640Z,1.30
2023-01-23T15:49:46.828Z,1.40
2023-01-23T15:54:55.760Z,1.30
2023-01-23T15:59:58.267Z,1.30
2023-01-23T16:05:01.883Z,1.30
2023-01-23T16:10:11.556Z,1.30
2023-01-23T16:15:19.627Z,1.30
2023-01-23T16:20:31.801Z,1.20
2023-01-23T16:25:44.504Z,1.20
2023-01-23T16:30:49.782Z,1.30
2023-01-23T16:35:52.582Z,1.30
2023-01-23T16:40:57.921Z,1.40
2023-01-23T16:46:02.375Z,1.30
2023-01-23T16:51:16.946Z,1.30
2023-01-23T16:56:28.593Z,1.30
2023-01-23T17:01:35.714Z,1.30
2023-01-23T17:06:38.324Z,1.30
2023-01-23T17:11:48.424Z,1.30
2023-01-23T17:16:52.311Z,1.30
2023-01-23T17:21:55.303Z,1.30
2023-01-23T17:26:57.835Z,1.30
2023-01-23T17:32:00.656Z,1.30
2023-01-23T17:37:03.448Z,1.30
2023-01-23T17:42:13.232Z,1.20
2023-01-23T17:47:16.161Z,1.20
2023-01-23T17:52:21.720Z,1.30
2023-01-23T17:57:24.337Z,1.20
2023-01-23T18:02:28.860Z,1.20
2023-01-23T18:07:31.783Z,1.20
2023-01-23T18:13:13.647Z,1.20
2023-01-23T18:18:23.394Z,1.20
2023-01-23T18:23:28.126Z,1.30
2023-01-23T18:28:58.436Z,1.10
2023-01-23T18:34:44.972Z,1.10
2023-01-23T18:39:53.366Z,1.10
2023-01-23T18:45:10.608Z,1.10
2023-01-23T18:50:18.680Z,1.10
2023-01-23T18:55:24.722Z,1.10
2023-01-23T19:00:40.264Z,1.10
2023-01-23T19:05:43.660Z,1.10
2023-01-23T19:10:49.262Z,1.10
2023-01-23T19:16:05.448Z,1.10
2023-01-23T19:21:28.294Z,1.10
2023-01-23T19:26:32.273Z,1.10
2023-01-23T19:31:36.677Z,1.10
2023-01-23T19:36:39.315Z,1.10
2023-01-23T19:41:47.047Z,1.20
2023-01-23T19:46:49.754Z,1.20
2023-01-23T19:51:52.426Z,1.10
2023-01-23T19:56:55.136Z,1.10
2023-01-23T20:01:57.681Z,1.10
2023-01-23T20:07:00.473Z,1.10
2023-01-23T20:12:03.153Z,1.10
2023-01-23T20:17:05.732Z,1.10
2023-01-23T20:28:23.893Z,1.10
2023-01-23T20:33:26.525Z,1.10
2023-01-23T20:38:30.388Z,1.10
2023-01-23T20:43:33.505Z,1.20
2023-01-23T20:48:41.816Z,1.20
2023-01-23T20:53:45.942Z,1.20
2023-01-23T20:59:08.247Z,1.20
2023-01-23T21:04:10.746Z,1.10
2023-01-23T21:09:13.763Z,1.10
2023-01-23T21:14:16.309Z,1.10
2023-01-23T21:19:19.204Z,1.10
2023-01-23T21:24:22.012Z,1.10
2023-01-23T21:29:24.596Z,1.10
2023-01-23T21:34:27.600Z,1.10
2023-01-23T21:39:30.229Z,1.10
2023-01-23T21:44:34.768Z,1.10
2023-01-23T21:49:38.299Z,1.00
2023-01-23T21:54:42.648Z,1.00
2023-01-23T22:00:05.393Z,1.10
2023-01-23T22:05:17.951Z,1.10
2023-01-23T22:10:20.617Z,1.10
2023-01-23T22:15:24.185Z,1.10
2023-01-23T22:20:26.908Z,1.10
2023-01-23T22:25:29.414Z,1.10
2023-01-23T22:30:31.910Z,1.10
2023-01-23T22:35:41.893Z,1.10
2023-01-23T22:40:44.723Z,1.10
2023-01-23T22:45:47.177Z,1.10
2023-01-23T22:50:49.658Z,1.10
2023-01-23T22:55:52.197Z,1.00
2023-01-23T23:00:54.823Z,1.00
2023-01-23T23:06:00.789Z,1.00
2023-01-23T23:11:12.477Z,0.90
2023-01-23T23:16:22.106Z,0.90
2023-01-23T23:21:28.377Z,0.90
2023-01-23T23:26:31.932Z,1.00
2023-01-23T23:31:34.601Z,1.00
2023-01-23T23:36:37.152Z,1.00
2023-01-23T23:41:39.770Z,1.00
2023-01-23T23:46:42.252Z,1.00
2023-01-23T23:51:44.802Z,1.10
2023-01-23T23:56:48.408Z,1.10
